sensor_id;sensor_type;location;lat;lon;timestamp;P1;durP1;ratioP1;P2;durP2;ratioP2
38937;SDS011;24727;51.974;20.868;2023-05-16T00:01:01;7.85;;;6.05;;
38937;SDS011;24727;51.974;20.868;2023-05-16T00:03:28;9.88;;;6.65;;
38937;SDS011;24727;51.974;20.868;2023-05-16T00:05:55;8.95;;;6.15;;
38937;SDS011;24727;51.974;20.868;2023-05-16T00:08:23;8.25;;;6.47;;
38937;SDS011;24727;51.974;20.868;2023-05-16T00:10:50;9.32;;;6.43;;
38937;SDS011;24727;51.974;20.868;2023-05-16T00:13:16;7.22;;;6.20;;
38937;SDS011;24727;51.974;20.868;2023-05-16T00:15:46;8.88;;;6.03;;
38937;SDS011;24727;51.974;20.868;2023-05-16T00:18:12;7.95;;;6.18;;
38937;SDS011;24727;51.974;20.868;2023-05-16T00:20:41;7.22;;;6.25;;
38937;SDS011;24727;51.974;20.868;2023-05-16T00:23:08;8.23;;;6.25;;
38937;SDS011;24727;51.974;20.868;2023-05-16T00:25:35;7.72;;;6.18;;
38937;SDS011;24727;51.974;20.868;2023-05-16T00:28:01;10.82;;;6.07;;
38937;SDS011;24727;51.974;20.868;2023-05-16T00:30:27;9.45;;;6.50;;
38937;SDS011;24727;51.974;20.868;2023-05-16T00:32:55;10.38;;;7.30;;
38937;SDS011;24727;51.974;20.868;2023-05-16T00:35:21;9.43;;;6.50;;
38937;SDS011;24727;51.974;20.868;2023-05-16T00:37:47;13.55;;;7.03;;
38937;SDS011;24727;51.974;20.868;2023-05-16T00:40:14;7.88;;;6.50;;
38937;SDS011;24727;51.974;20.868;2023-05-16T00:42:40;7.07;;;6.20;;
38937;SDS011;24727;51.974;20.868;2023-05-16T00:45:07;8.35;;;6.60;;
38937;SDS011;24727;51.974;20.868;2023-05-16T00:47:34;11.18;;;6.68;;
38937;SDS011;24727;51.974;20.868;2023-05-16T00:50:03;8.90;;;6.50;;
38937;SDS011;24727;51.974;20.868;2023-05-16T00:52:30;13.13;;;6.85;;
38937;SDS011;24727;51.974;20.868;2023-05-16T00:54:58;9.02;;;6.88;;
38937;SDS011;24727;51.974;20.868;2023-05-16T00:57:24;10.00;;;7.25;;
38937;SDS011;24727;51.974;20.868;2023-05-16T00:59:51;7.63;;;6.72;;
38937;SDS011;24727;51.974;20.868;2023-05-16T01:02:18;10.70;;;7.50;;
38937;SDS011;24727;51.974;20.868;2023-05-16T01:04:45;10.13;;;7.07;;
38937;SDS011;24727;51.974;20.868;2023-05-16T01:07:13;18.35;;;7.72;;
38937;SDS011;24727;51.974;20.868;2023-05-16T01:09:39;13.10;;;7.60;;
38937;SDS011;24727;51.974;20.868;2023-05-16T01:15:28;9.93;;;7.28;;
38937;SDS011;24727;51.974;20.868;2023-05-16T01:20:58;10.90;;;7.57;;
38937;SDS011;24727;51.974;20.868;2023-05-16T01:29:07;11.25;;;7.63;;
38937;SDS011;24727;51.974;20.868;2023-05-16T01:31:34;11.48;;;8.15;;
38937;SDS011;24727;51.974;20.868;2023-05-16T01:34:00;16.48;;;8.60;;
38937;SDS011;24727;51.974;20.868;2023-05-16T01:36:47;11.32;;;8.20;;
38937;SDS011;24727;51.974;20.868;2023-05-16T01:39:36;10.18;;;8.43;;
38937;SDS011;24727;51.974;20.868;2023-05-16T01:42:18;14.88;;;9.10;;
38937;SDS011;24727;51.974;20.868;2023-05-16T01:47:18;10.82;;;8.73;;
38937;SDS011;24727;51.974;20.868;2023-05-16T01:49:56;18.42;;;9.45;;
38937;SDS011;24727;51.974;20.868;2023-05-16T01:52:31;17.05;;;10.15;;
38937;SDS011;24727;51.974;20.868;2023-05-16T01:55:09;13.63;;;8.98;;
38937;SDS011;24727;51.974;20.868;2023-05-16T01:57:39;10.70;;;8.35;;
38937;SDS011;24727;51.974;20.868;2023-05-16T02:00:06;12.07;;;8.85;;
38937;SDS011;24727;51.974;20.868;2023-05-16T02:02:33;12.88;;;9.00;;
38937;SDS011;24727;51.974;20.868;2023-05-16T02:04:59;11.32;;;8.90;;
38937;SDS011;24727;51.974;20.868;2023-05-16T02:07:25;13.52;;;8.40;;
38937;SDS011;24727;51.974;20.868;2023-05-16T02:09:51;10.65;;;8.05;;
38937;SDS011;24727;51.974;20.868;2023-05-16T02:12:17;12.43;;;8.45;;
38937;SDS011;24727;51.974;20.868;2023-05-16T02:14:43;12.73;;;9.63;;
38937;SDS011;24727;51.974;20.868;2023-05-16T02:17:11;15.13;;;9.23;;
38937;SDS011;24727;51.974;20.868;2023-05-16T02:19:37;11.57;;;9.13;;
38937;SDS011;24727;51.974;20.868;2023-05-16T02:22:04;15.40;;;8.73;;
38937;SDS011;24727;51.974;20.868;2023-05-16T02:24:30;16.42;;;8.65;;
38937;SDS011;24727;51.974;20.868;2023-05-16T02:26:56;11.30;;;9.10;;
38937;SDS011;24727;51.974;20.868;2023-05-16T02:29:22;14.15;;;9.63;;
38937;SDS011;24727;51.974;20.868;2023-05-16T02:31:48;13.07;;;9.43;;
38937;SDS011;24727;51.974;20.868;2023-05-16T02:34:14;12.80;;;9.43;;
38937;SDS011;24727;51.974;20.868;2023-05-16T02:36:41;11.25;;;9.18;;
38937;SDS011;24727;51.974;20.868;2023-05-16T02:39:08;13.20;;;10.32;;
38937;SDS011;24727;51.974;20.868;2023-05-16T02:41:34;14.65;;;10.48;;
38937;SDS011;24727;51.974;20.868;2023-05-16T02:44:01;13.43;;;10.23;;
38937;SDS011;24727;51.974;20.868;2023-05-16T02:46:28;16.25;;;10.30;;
38937;SDS011;24727;51.974;20.868;2023-05-16T02:48:58;17.67;;;11.63;;
38937;SDS011;24727;51.974;20.868;2023-05-16T02:51:25;15.48;;;11.98;;
38937;SDS011;24727;51.974;20.868;2023-05-16T02:53:52;18.42;;;13.07;;
38937;SDS011;24727;51.974;20.868;2023-05-16T02:56:21;19.90;;;13.18;;
38937;SDS011;24727;51.974;20.868;2023-05-16T02:58:47;19.95;;;13.25;;
38937;SDS011;24727;51.974;20.868;2023-05-16T03:01:14;16.05;;;12.55;;
38937;SDS011;24727;51.974;20.868;2023-05-16T03:03:41;21.00;;;13.32;;
38937;SDS011;24727;51.974;20.868;2023-05-16T03:06:07;18.17;;;12.88;;
38937;SDS011;24727;51.974;20.868;2023-05-16T03:08:34;17.02;;;12.88;;
38937;SDS011;24727;51.974;20.868;2023-05-16T03:11:00;15.60;;;12.23;;
38937;SDS011;24727;51.974;20.868;2023-05-16T03:13:27;16.58;;;11.65;;
38937;SDS011;24727;51.974;20.868;2023-05-16T03:15:55;15.13;;;11.75;;
38937;SDS011;24727;51.974;20.868;2023-05-16T03:18:21;15.10;;;11.20;;
38937;SDS011;24727;51.974;20.868;2023-05-16T03:20:48;15.80;;;11.27;;
38937;SDS011;24727;51.974;20.868;2023-05-16T03:23:14;16.00;;;10.77;;
38937;SDS011;24727;51.974;20.868;2023-05-16T03:25:41;15.57;;;11.88;;
38937;SDS011;24727;51.974;20.868;2023-05-16T03:28:07;13.23;;;10.82;;
38937;SDS011;24727;51.974;20.868;2023-05-16T03:30:34;15.77;;;11.48;;
38937;SDS011;24727;51.974;20.868;2023-05-16T03:33:00;14.00;;;10.23;;
38937;SDS011;24727;51.974;20.868;2023-05-16T03:35:26;13.90;;;10.57;;
38937;SDS011;24727;51.974;20.868;2023-05-16T03:37:53;13.35;;;10.07;;
38937;SDS011;24727;51.974;20.868;2023-05-16T03:40:19;14.13;;;9.57;;
38937;SDS011;24727;51.974;20.868;2023-05-16T03:42:46;13.75;;;9.27;;
38937;SDS011;24727;51.974;20.868;2023-05-16T03:45:12;14.65;;;9.80;;
38937;SDS011;24727;51.974;20.868;2023-05-16T03:47:37;13.02;;;9.70;;
38937;SDS011;24727;51.974;20.868;2023-05-16T03:50:04;14.95;;;9.93;;
38937;SDS011;24727;51.974;20.868;2023-05-16T03:52:31;10.77;;;8.55;;
38937;SDS011;24727;51.974;20.868;2023-05-16T03:54:59;11.18;;;8.48;;
38937;SDS011;24727;51.974;20.868;2023-05-16T03:57:26;11.88;;;8.00;;
38937;SDS011;24727;51.974;20.868;2023-05-16T03:59:54;10.35;;;8.10;;
38937;SDS011;24727;51.974;20.868;2023-05-16T04:02:20;11.85;;;8.73;;
38937;SDS011;24727;51.974;20.868;2023-05-16T04:04:46;10.32;;;8.25;;
38937;SDS011;24727;51.974;20.868;2023-05-16T04:07:13;14.73;;;7.93;;
38937;SDS011;24727;51.974;20.868;2023-05-16T04:09:40;10.73;;;8.30;;
38937;SDS011;24727;51.974;20.868;2023-05-16T04:12:06;9.80;;;8.48;;
38937;SDS011;24727;51.974;20.868;2023-05-16T04:14:33;11.82;;;8.10;;
38937;SDS011;24727;51.974;20.868;2023-05-16T04:17:02;11.77;;;8.80;;
38937;SDS011;24727;51.974;20.868;2023-05-16T04:19:30;13.40;;;8.77;;
38937;SDS011;24727;51.974;20.868;2023-05-16T04:21:58;12.88;;;9.70;;
38937;SDS011;24727;51.974;20.868;2023-05-16T04:24:24;12.13;;;8.65;;
38937;SDS011;24727;51.974;20.868;2023-05-16T04:26:54;11.32;;;8.93;;
38937;SDS011;24727;51.974;20.868;2023-05-16T04:29:20;11.88;;;8.85;;
38937;SDS011;24727;51.974;20.868;2023-05-16T04:31:46;12.00;;;8.65;;
38937;SDS011;24727;51.974;20.868;2023-05-16T04:34:14;9.93;;;8.73;;
38937;SDS011;24727;51.974;20.868;2023-05-16T04:36:40;10.35;;;8.65;;
38937;SDS011;24727;51.974;20.868;2023-05-16T04:39:07;14.27;;;8.43;;
38937;SDS011;24727;51.974;20.868;2023-05-16T04:41:33;15.27;;;8.63;;
38937;SDS011;24727;51.974;20.868;2023-05-16T04:46:29;8.60;;;7.57;;
38937;SDS011;24727;51.974;20.868;2023-05-16T04:48:56;12.50;;;8.35;;
38937;SDS011;24727;51.974;20.868;2023-05-16T04:51:24;9.52;;;8.20;;
38937;SDS011;24727;51.974;20.868;2023-05-16T04:53:50;12.48;;;8.55;;
38937;SDS011;24727;51.974;20.868;2023-05-16T04:59:01;10.77;;;7.35;;
38937;SDS011;24727;51.974;20.868;2023-05-16T05:01:28;11.55;;;7.72;;
38937;SDS011;24727;51.974;20.868;2023-05-16T05:03:54;8.50;;;7.63;;
38937;SDS011;24727;51.974;20.868;2023-05-16T05:06:22;11.15;;;8.18;;
38937;SDS011;24727;51.974;20.868;2023-05-16T05:08:48;9.63;;;8.05;;
38937;SDS011;24727;51.974;20.868;2023-05-16T05:11:14;7.88;;;6.97;;
38937;SDS011;24727;51.974;20.868;2023-05-16T05:13:42;8.05;;;6.97;;
38937;SDS011;24727;51.974;20.868;2023-05-16T05:16:07;12.57;;;7.63;;
38937;SDS011;24727;51.974;20.868;2023-05-16T05:18:33;9.95;;;7.82;;
38937;SDS011;24727;51.974;20.868;2023-05-16T05:21:00;8.88;;;7.03;;
38937;SDS011;24727;51.974;20.868;2023-05-16T05:23:27;9.45;;;7.70;;
38937;SDS011;24727;51.974;20.868;2023-05-16T05:25:55;8.68;;;7.78;;
38937;SDS011;24727;51.974;20.868;2023-05-16T05:28:22;9.50;;;7.88;;
38937;SDS011;24727;51.974;20.868;2023-05-16T05:30:48;12.75;;;8.32;;
38937;SDS011;24727;51.974;20.868;2023-05-16T05:33:16;9.57;;;7.18;;
38937;SDS011;24727;51.974;20.868;2023-05-16T05:35:46;11.80;;;8.43;;
38937;SDS011;24727;51.974;20.868;2023-05-16T05:38:15;13.77;;;7.80;;
38937;SDS011;24727;51.974;20.868;2023-05-16T05:40:43;10.40;;;7.85;;
38937;SDS011;24727;51.974;20.868;2023-05-16T05:43:10;10.52;;;7.78;;
38937;SDS011;24727;51.974;20.868;2023-05-16T05:45:36;10.55;;;8.15;;
38937;SDS011;24727;51.974;20.868;2023-05-16T05:48:02;9.82;;;7.43;;
38937;SDS011;24727;51.974;20.868;2023-05-16T05:50:29;13.95;;;7.88;;
38937;SDS011;24727;51.974;20.868;2023-05-16T05:52:57;12.02;;;7.45;;
38937;SDS011;24727;51.974;20.868;2023-05-16T05:55:23;11.95;;;9.13;;
38937;SDS011;24727;51.974;20.868;2023-05-16T05:57:50;13.77;;;8.20;;
38937;SDS011;24727;51.974;20.868;2023-05-16T06:00:22;9.80;;;8.15;;
38937;SDS011;24727;51.974;20.868;2023-05-16T06:02:48;13.27;;;8.07;;
38937;SDS011;24727;51.974;20.868;2023-05-16T06:05:15;9.00;;;8.00;;
38937;SDS011;24727;51.974;20.868;2023-05-16T06:07:40;9.35;;;7.50;;
38937;SDS011;24727;51.974;20.868;2023-05-16T06:10:06;9.80;;;7.88;;
38937;SDS011;24727;51.974;20.868;2023-05-16T06:12:34;11.55;;;8.05;;
38937;SDS011;24727;51.974;20.868;2023-05-16T06:15:00;9.13;;;7.22;;
38937;SDS011;24727;51.974;20.868;2023-05-16T06:17:26;9.32;;;7.60;;
38937;SDS011;24727;51.974;20.868;2023-05-16T06:19:52;8.25;;;7.45;;
38937;SDS011;24727;51.974;20.868;2023-05-16T06:22:19;11.27;;;7.70;;
38937;SDS011;24727;51.974;20.868;2023-05-16T06:24:46;16.38;;;7.75;;
38937;SDS011;24727;51.974;20.868;2023-05-16T06:27:12;9.20;;;7.18;;
38937;SDS011;24727;51.974;20.868;2023-05-16T06:29:38;12.50;;;7.25;;
38937;SDS011;24727;51.974;20.868;2023-05-16T06:32:04;11.60;;;6.50;;
38937;SDS011;24727;51.974;20.868;2023-05-16T06:34:31;9.02;;;6.53;;
38937;SDS011;24727;51.974;20.868;2023-05-16T06:36:57;7.95;;;6.43;;
38937;SDS011;24727;51.974;20.868;2023-05-16T06:39:25;8.93;;;6.28;;
38937;SDS011;24727;51.974;20.868;2023-05-16T06:41:57;8.52;;;6.15;;
38937;SDS011;24727;51.974;20.868;2023-05-16T06:44:25;7.32;;;6.63;;
38937;SDS011;24727;51.974;20.868;2023-05-16T06:46:52;9.73;;;6.43;;
38937;SDS011;24727;51.974;20.868;2023-05-16T06:49:18;8.75;;;5.95;;
38937;SDS011;24727;51.974;20.868;2023-05-16T06:51:43;6.78;;;6.05;;
38937;SDS011;24727;51.974;20.868;2023-05-16T06:54:10;6.30;;;5.70;;
38937;SDS011;24727;51.974;20.868;2023-05-16T06:56:37;13.15;;;6.05;;
38937;SDS011;24727;51.974;20.868;2023-05-16T06:59:03;13.02;;;6.28;;
38937;SDS011;24727;51.974;20.868;2023-05-16T07:01:29;7.68;;;6.07;;
38937;SDS011;24727;51.974;20.868;2023-05-16T07:03:55;7.43;;;6.45;;
38937;SDS011;24727;51.974;20.868;2023-05-16T07:06:21;8.05;;;7.25;;
38937;SDS011;24727;51.974;20.868;2023-05-16T07:08:48;7.78;;;6.38;;
38937;SDS011;24727;51.974;20.868;2023-05-16T07:11:14;10.43;;;6.22;;
38937;SDS011;24727;51.974;20.868;2023-05-16T07:13:40;8.65;;;6.57;;
38937;SDS011;24727;51.974;20.868;2023-05-16T07:16:06;7.85;;;7.10;;
38937;SDS011;24727;51.974;20.868;2023-05-16T07:18:33;7.32;;;6.63;;
38937;SDS011;24727;51.974;20.868;2023-05-16T07:21:00;8.45;;;7.10;;
38937;SDS011;24727;51.974;20.868;2023-05-16T07:23:27;12.98;;;10.38;;
38937;SDS011;24727;51.974;20.868;2023-05-16T07:25:53;8.50;;;7.70;;
38937;SDS011;24727;51.974;20.868;2023-05-16T07:28:19;8.00;;;7.30;;
38937;SDS011;24727;51.974;20.868;2023-05-16T07:30:46;12.32;;;8.65;;
38937;SDS011;24727;51.974;20.868;2023-05-16T07:33:12;8.80;;;7.90;;
38937;SDS011;24727;51.974;20.868;2023-05-16T07:35:44;9.25;;;8.02;;
38937;SDS011;24727;51.974;20.868;2023-05-16T07:38:12;8.85;;;7.95;;
38937;SDS011;24727;51.974;20.868;2023-05-16T07:40:39;8.45;;;7.63;;
38937;SDS011;24727;51.974;20.868;2023-05-16T07:43:06;8.30;;;7.50;;
38937;SDS011;24727;51.974;20.868;2023-05-16T07:45:32;9.50;;;7.88;;
38937;SDS011;24727;51.974;20.868;2023-05-16T07:47:59;8.48;;;7.60;;
38937;SDS011;24727;51.974;20.868;2023-05-16T07:50:25;13.05;;;8.00;;
38937;SDS011;24727;51.974;20.868;2023-05-16T07:52:51;8.93;;;7.32;;
38937;SDS011;24727;51.974;20.868;2023-05-16T07:55:18;14.27;;;9.27;;
38937;SDS011;24727;51.974;20.868;2023-05-16T07:57:46;9.68;;;8.40;;
38937;SDS011;24727;51.974;20.868;2023-05-16T08:00:13;9.77;;;8.68;;
38937;SDS011;24727;51.974;20.868;2023-05-16T08:02:39;10.65;;;8.20;;
38937;SDS011;24727;51.974;20.868;2023-05-16T08:05:06;8.85;;;7.95;;
38937;SDS011;24727;51.974;20.868;2023-05-16T08:10:03;8.02;;;6.95;;
38937;SDS011;24727;51.974;20.868;2023-05-16T08:12:29;8.55;;;7.30;;
38937;SDS011;24727;51.974;20.868;2023-05-16T08:14:56;8.88;;;6.68;;
38937;SDS011;24727;51.974;20.868;2023-05-16T08:17:28;7.80;;;7.00;;
38937;SDS011;24727;51.974;20.868;2023-05-16T08:19:55;6.03;;;5.45;;
38937;SDS011;24727;51.974;20.868;2023-05-16T08:22:21;6.60;;;3.72;;
38937;SDS011;24727;51.974;20.868;2023-05-16T08:24:47;2.72;;;2.53;;
38937;SDS011;24727;51.974;20.868;2023-05-16T08:27:13;2.60;;;2.40;;
38937;SDS011;24727;51.974;20.868;2023-05-16T08:29:40;3.10;;;2.35;;
38937;SDS011;24727;51.974;20.868;2023-05-16T08:32:07;2.58;;;2.38;;
38937;SDS011;24727;51.974;20.868;2023-05-16T08:34:35;2.97;;;2.67;;
38937;SDS011;24727;51.974;20.868;2023-05-16T08:37:01;2.92;;;2.70;;
38937;SDS011;24727;51.974;20.868;2023-05-16T08:39:28;3.40;;;2.95;;
38937;SDS011;24727;51.974;20.868;2023-05-16T08:41:56;3.78;;;2.70;;
38937;SDS011;24727;51.974;20.868;2023-05-16T08:44:24;4.57;;;2.83;;
38937;SDS011;24727;51.974;20.868;2023-05-16T08:46:51;3.15;;;2.88;;
38937;SDS011;24727;51.974;20.868;2023-05-16T08:49:18;4.65;;;3.00;;
38937;SDS011;24727;51.974;20.868;2023-05-16T08:51:46;3.45;;;2.65;;
38937;SDS011;24727;51.974;20.868;2023-05-16T08:54:14;6.03;;;3.08;;
38937;SDS011;24727;51.974;20.868;2023-05-16T08:56:41;3.20;;;2.88;;
38937;SDS011;24727;51.974;20.868;2023-05-16T08:59:09;3.92;;;3.05;;
38937;SDS011;24727;51.974;20.868;2023-05-16T09:01:36;3.25;;;2.72;;
38937;SDS011;24727;51.974;20.868;2023-05-16T09:04:03;3.03;;;2.58;;
38937;SDS011;24727;51.974;20.868;2023-05-16T09:06:31;2.45;;;2.25;;
38937;SDS011;24727;51.974;20.868;2023-05-16T09:08:57;3.00;;;2.35;;
38937;SDS011;24727;51.974;20.868;2023-05-16T09:11:23;3.30;;;2.65;;
38937;SDS011;24727;51.974;20.868;2023-05-16T09:13:50;4.70;;;2.20;;
38937;SDS011;24727;51.974;20.868;2023-05-16T09:16:17;5.05;;;2.40;;
38937;SDS011;24727;51.974;20.868;2023-05-16T09:18:57;7.53;;;2.35;;
38937;SDS011;24727;51.974;20.868;2023-05-16T09:21:28;2.65;;;2.20;;
38937;SDS011;24727;51.974;20.868;2023-05-16T09:24:03;6.55;;;2.40;;
38937;SDS011;24727;51.974;20.868;2023-05-16T09:26:31;3.60;;;2.53;;
38937;SDS011;24727;51.974;20.868;2023-05-16T09:28:58;3.88;;;2.20;;
38937;SDS011;24727;51.974;20.868;2023-05-16T09:31:24;2.38;;;2.17;;
38937;SDS011;24727;51.974;20.868;2023-05-16T09:33:58;3.60;;;2.40;;
38937;SDS011;24727;51.974;20.868;2023-05-16T09:36:25;2.35;;;1.98;;
38937;SDS011;24727;51.974;20.868;2023-05-16T09:38:52;2.30;;;2.10;;
38937;SDS011;24727;51.974;20.868;2023-05-16T09:41:20;3.60;;;2.30;;
38937;SDS011;24727;51.974;20.868;2023-05-16T09:43:47;2.17;;;1.98;;
38937;SDS011;24727;51.974;20.868;2023-05-16T09:46:13;2.40;;;2.20;;
38937;SDS011;24727;51.974;20.868;2023-05-16T09:48:48;2.20;;;2.00;;
38937;SDS011;24727;51.974;20.868;2023-05-16T09:51:16;3.35;;;2.60;;
38937;SDS011;24727;51.974;20.868;2023-05-16T09:53:47;4.50;;;2.53;;
38937;SDS011;24727;51.974;20.868;2023-05-16T09:56:13;3.10;;;2.08;;
38937;SDS011;24727;51.974;20.868;2023-05-16T09:58:41;2.50;;;2.30;;
38937;SDS011;24727;51.974;20.868;2023-05-16T10:01:09;3.75;;;2.15;;
38937;SDS011;24727;51.974;20.868;2023-05-16T10:03:37;3.13;;;2.40;;
38937;SDS011;24727;51.974;20.868;2023-05-16T10:06:04;2.55;;;2.35;;
38937;SDS011;24727;51.974;20.868;2023-05-16T10:08:32;2.35;;;2.15;;
38937;SDS011;24727;51.974;20.868;2023-05-16T10:11:03;2.60;;;2.05;;
38937;SDS011;24727;51.974;20.868;2023-05-16T10:13:31;2.20;;;2.03;;
38937;SDS011;24727;51.974;20.868;2023-05-16T10:15:59;2.30;;;1.90;;
38937;SDS011;24727;51.974;20.868;2023-05-16T10:18:31;2.10;;;1.77;;
38937;SDS011;24727;51.974;20.868;2023-05-16T10:21:09;2.67;;;2.00;;
38937;SDS011;24727;51.974;20.868;2023-05-16T10:23:43;2.30;;;2.10;;
38937;SDS011;24727;51.974;20.868;2023-05-16T10:26:13;3.83;;;1.80;;
38937;SDS011;24727;51.974;20.868;2023-05-16T10:28:41;3.75;;;1.75;;
38937;SDS011;24727;51.974;20.868;2023-05-16T10:31:08;2.17;;;1.73;;
38937;SDS011;24727;51.974;20.868;2023-05-16T10:33:36;2.05;;;1.85;;
38937;SDS011;24727;51.974;20.868;2023-05-16T10:36:03;1.80;;;1.70;;
38937;SDS011;24727;51.974;20.868;2023-05-16T10:38:29;2.35;;;2.10;;
38937;SDS011;24727;51.974;20.868;2023-05-16T10:40:56;4.30;;;1.90;;
38937;SDS011;24727;51.974;20.868;2023-05-16T10:43:26;1.52;;;1.42;;
38937;SDS011;24727;51.974;20.868;2023-05-16T10:46:12;2.45;;;1.60;;
38937;SDS011;24727;51.974;20.868;2023-05-16T10:48:39;1.67;;;1.58;;
38937;SDS011;24727;51.974;20.868;2023-05-16T10:53:51;1.98;;;1.50;;
38937;SDS011;24727;51.974;20.868;2023-05-16T10:56:22;1.85;;;1.75;;
38937;SDS011;24727;51.974;20.868;2023-05-16T10:58:52;2.92;;;1.73;;
38937;SDS011;24727;51.974;20.868;2023-05-16T11:01:23;4.43;;;2.05;;
38937;SDS011;24727;51.974;20.868;2023-05-16T11:03:59;3.42;;;1.67;;
38937;SDS011;24727;51.974;20.868;2023-05-16T11:06:27;5.13;;;1.88;;
38937;SDS011;24727;51.974;20.868;2023-05-16T11:11:43;1.70;;;1.58;;
38937;SDS011;24727;51.974;20.868;2023-05-16T11:14:23;2.28;;;1.80;;
38937;SDS011;24727;51.974;20.868;2023-05-16T11:17:02;2.13;;;1.80;;
38937;SDS011;24727;51.974;20.868;2023-05-16T11:19:42;2.83;;;2.10;;
38937;SDS011;24727;51.974;20.868;2023-05-16T11:24:55;1.88;;;1.67;;
38937;SDS011;24727;51.974;20.868;2023-05-16T11:27:29;4.40;;;1.85;;
38937;SDS011;24727;51.974;20.868;2023-05-16T11:30:17;2.03;;;1.77;;
38937;SDS011;24727;51.974;20.868;2023-05-16T11:32:46;2.08;;;1.50;;
38937;SDS011;24727;51.974;20.868;2023-05-16T11:35:17;1.92;;;1.50;;
38937;SDS011;24727;51.974;20.868;2023-05-16T11:37:43;1.33;;;1.23;;
38937;SDS011;24727;51.974;20.868;2023-05-16T11:40:11;2.80;;;1.80;;
38937;SDS011;24727;51.974;20.868;2023-05-16T11:42:40;1.50;;;1.40;;
38937;SDS011;24727;51.974;20.868;2023-05-16T11:45:14;2.67;;;1.20;;
38937;SDS011;24727;51.974;20.868;2023-05-16T11:47:42;1.45;;;1.35;;
38937;SDS011;24727;51.974;20.868;2023-05-16T11:50:20;1.70;;;1.60;;
38937;SDS011;24727;51.974;20.868;2023-05-16T11:52:52;3.38;;;1.67;;
38937;SDS011;24727;51.974;20.868;2023-05-16T11:55:22;1.50;;;1.40;;
38937;SDS011;24727;51.974;20.868;2023-05-16T11:57:56;1.63;;;1.52;;
38937;SDS011;24727;51.974;20.868;2023-05-16T12:00:23;1.67;;;1.58;;
38937;SDS011;24727;51.974;20.868;2023-05-16T12:02:51;1.55;;;1.45;;
38937;SDS011;24727;51.974;20.868;2023-05-16T12:05:18;1.83;;;1.65;;
38937;SDS011;24727;51.974;20.868;2023-05-16T12:07:49;1.80;;;1.50;;
38937;SDS011;24727;51.974;20.868;2023-05-16T12:10:18;3.08;;;1.58;;
38937;SDS011;24727;51.974;20.868;2023-05-16T12:12:46;2.10;;;1.63;;
38937;SDS011;24727;51.974;20.868;2023-05-16T12:15:20;1.50;;;1.40;;
38937;SDS011;24727;51.974;20.868;2023-05-16T12:17:47;2.25;;;1.52;;
38937;SDS011;24727;51.974;20.868;2023-05-16T12:20:13;5.32;;;1.50;;
38937;SDS011;24727;51.974;20.868;2023-05-16T12:22:41;2.40;;;1.50;;
38937;SDS011;24727;51.974;20.868;2023-05-16T12:27:57;2.20;;;1.50;;
38937;SDS011;24727;51.974;20.868;2023-05-16T12:30:30;2.67;;;1.60;;
38937;SDS011;24727;51.974;20.868;2023-05-16T12:32:57;1.90;;;1.40;;
38937;SDS011;24727;51.974;20.868;2023-05-16T12:35:28;3.58;;;1.90;;
38937;SDS011;24727;51.974;20.868;2023-05-16T12:37:58;3.37;;;2.03;;
38937;SDS011;24727;51.974;20.868;2023-05-16T12:40:28;2.08;;;1.70;;
38937;SDS011;24727;51.974;20.868;2023-05-16T12:42:54;3.42;;;1.63;;
38937;SDS011;24727;51.974;20.868;2023-05-16T12:45:20;1.73;;;1.63;;
38937;SDS011;24727;51.974;20.868;2023-05-16T12:47:47;3.60;;;1.50;;
38937;SDS011;24727;51.974;20.868;2023-05-16T12:50:16;2.88;;;1.50;;
38937;SDS011;24727;51.974;20.868;2023-05-16T12:52:51;1.50;;;1.40;;
38937;SDS011;24727;51.974;20.868;2023-05-16T12:55:19;1.95;;;1.17;;
38937;SDS011;24727;51.974;20.868;2023-05-16T12:57:47;9.95;;;1.70;;
38937;SDS011;24727;51.974;20.868;2023-05-16T13:00:15;3.10;;;2.25;;
38937;SDS011;24727;51.974;20.868;2023-05-16T13:02:44;2.00;;;1.80;;
38937;SDS011;24727;51.974;20.868;2023-05-16T13:05:11;3.95;;;1.70;;
38937;SDS011;24727;51.974;20.868;2023-05-16T13:07:37;1.98;;;1.50;;
38937;SDS011;24727;51.974;20.868;2023-05-16T13:10:06;1.45;;;1.35;;
38937;SDS011;24727;51.974;20.868;2023-05-16T13:12:38;4.22;;;1.50;;
38937;SDS011;24727;51.974;20.868;2023-05-16T13:15:06;2.03;;;1.85;;
38937;SDS011;24727;51.974;20.868;2023-05-16T13:17:36;1.73;;;1.63;;
38937;SDS011;24727;51.974;20.868;2023-05-16T13:20:04;4.50;;;1.48;;
38937;SDS011;24727;51.974;20.868;2023-05-16T13:22:40;2.90;;;1.45;;
38937;SDS011;24727;51.974;20.868;2023-05-16T13:25:07;2.88;;;1.70;;
38937;SDS011;24727;51.974;20.868;2023-05-16T13:27:34;2.88;;;1.50;;
38937;SDS011;24727;51.974;20.868;2023-05-16T13:30:01;3.92;;;1.83;;
38937;SDS011;24727;51.974;20.868;2023-05-16T13:32:28;2.25;;;1.40;;
38937;SDS011;24727;51.974;20.868;2023-05-16T13:34:55;2.20;;;1.40;;
38937;SDS011;24727;51.974;20.868;2023-05-16T13:37:21;1.77;;;1.67;;
38937;SDS011;24727;51.974;20.868;2023-05-16T13:39:49;1.65;;;1.50;;
38937;SDS011;24727;51.974;20.868;2023-05-16T13:42:15;1.65;;;1.55;;
38937;SDS011;24727;51.974;20.868;2023-05-16T13:44:41;2.25;;;2.00;;
38937;SDS011;24727;51.974;20.868;2023-05-16T13:47:07;3.08;;;1.70;;
38937;SDS011;24727;51.974;20.868;2023-05-16T13:49:33;2.05;;;1.77;;
38937;SDS011;24727;51.974;20.868;2023-05-16T13:52:00;1.70;;;1.60;;
38937;SDS011;24727;51.974;20.868;2023-05-16T13:54:26;2.65;;;1.60;;
38937;SDS011;24727;51.974;20.868;2023-05-16T13:56:53;3.72;;;1.55;;
38937;SDS011;24727;51.974;20.868;2023-05-16T13:59:19;3.03;;;1.77;;
38937;SDS011;24727;51.974;20.868;2023-05-16T14:01:45;2.15;;;1.70;;
38937;SDS011;24727;51.974;20.868;2023-05-16T14:04:11;1.60;;;1.50;;
38937;SDS011;24727;51.974;20.868;2023-05-16T14:06:37;1.50;;;1.20;;
38937;SDS011;24727;51.974;20.868;2023-05-16T14:09:03;2.13;;;1.63;;
38937;SDS011;24727;51.974;20.868;2023-05-16T14:11:31;7.63;;;2.03;;
38937;SDS011;24727;51.974;20.868;2023-05-16T14:13:58;7.28;;;1.90;;
38937;SDS011;24727;51.974;20.868;2023-05-16T14:16:24;1.77;;;1.67;;
38937;SDS011;24727;51.974;20.868;2023-05-16T14:18:50;4.25;;;1.92;;
38937;SDS011;24727;51.974;20.868;2023-05-16T14:21:22;2.00;;;1.80;;
38937;SDS011;24727;51.974;20.868;2023-05-16T14:23:48;3.25;;;1.80;;
38937;SDS011;24727;51.974;20.868;2023-05-16T14:26:14;1.75;;;1.63;;
38937;SDS011;24727;51.974;20.868;2023-05-16T14:28:40;2.40;;;1.70;;
38937;SDS011;24727;51.974;20.868;2023-05-16T14:31:06;4.13;;;2.25;;
38937;SDS011;24727;51.974;20.868;2023-05-16T14:33:34;2.80;;;1.70;;
38937;SDS011;24727;51.974;20.868;2023-05-16T14:36:01;3.10;;;1.48;;
38937;SDS011;24727;51.974;20.868;2023-05-16T14:38:28;3.80;;;1.58;;
38937;SDS011;24727;51.974;20.868;2023-05-16T14:40:55;1.77;;;1.52;;
38937;SDS011;24727;51.974;20.868;2023-05-16T14:43:22;3.83;;;1.60;;
38937;SDS011;24727;51.974;20.868;2023-05-16T14:45:48;2.95;;;1.55;;
38937;SDS011;24727;51.974;20.868;2023-05-16T14:48:14;2.13;;;1.80;;
38937;SDS011;24727;51.974;20.868;2023-05-16T14:50:41;2.17;;;1.95;;
38937;SDS011;24727;51.974;20.868;2023-05-16T14:53:07;1.83;;;1.60;;
38937;SDS011;24727;51.974;20.868;2023-05-16T14:55:34;2.95;;;1.90;;
38937;SDS011;24727;51.974;20.868;2023-05-16T14:58:00;1.95;;;1.80;;
38937;SDS011;24727;51.974;20.868;2023-05-16T15:00:27;2.13;;;1.92;;
38937;SDS011;24727;51.974;20.868;2023-05-16T15:02:52;1.65;;;1.55;;
38937;SDS011;24727;51.974;20.868;2023-05-16T15:05:19;7.90;;;1.90;;